Briefing drone pour Arpajon-sur-cere

Rechercher une autre localisation

Conditions de vol :


Nous sommes le : Vendredi 02 décembre 2022
Il est 12:53 UTC (13:53 LT)

Lever de soleil : 06:42 UTC (07:42 LT)
Coucher de soleil : 16:36 UTC (17:36 LT)

Météo

L'essentiel des conditions de vol

VIGILANCE MÉTÉO FRANCE - Cantal (15)
Vigilance Jaune : Neige-verglas
CARTES DES FRONTS
METAR de LFLW
LFLW 021230Z AUTO VRB02KT 9999 OVC023 03/M02 Q1015 NOSIG

Date d'émission: 02/12/2022
Heure d'émission: 12:30 UTC
Vent: Variable 2 KT (4 km/h)
Visibilité horizontale: > 10 km
Plafond :
- Couvert à 2300ft (701m)
Température: 3 °C
Point de rosée: -2 °C
Humidité: 70%
Pression (QNH): 1015 hPa
Conditions: Pas de changement dans les 2 heures (NOSIG)
Prévision 24h pour Aurillac (1 km)
Vent : 101° pour 1 KT (2 km/h)
Temperature Maxi: 3 °C
Temperature Min: 3 °C
Humidité : 84%
Condition : Couvert



Warning: count(): Parameter must be an array or an object that implements Countable in /homepages/6/d509196549/htdocs/droneoxygene/briefing.php on line 743
WEBCAM POUR ARPAJON-SUR-CERE

Réglementation

Voler en sécurité

CARTES AERONAUTIQUE 1/500.000
CARTE AZBA (Reseau basse altitude)
CARTES VAC (LFLW)
SUP AIP




Chargement des AIP...
NOTAM (ARPAJON-SUR-CERE + Terrain à proximité / FIR )




Chargement des NOTAMS...
CONTACT PREFECTURE 15


Avertissement : Les données mises à disposition sont indicatives. Oxygène Drone ne pourra être tenu responsable de dégâts causés aux biens et aux personnes.